createdAt,value
2022-08-18T00:01:07.361Z,23.40
2022-08-18T00:03:56.579Z,23.40
2022-08-18T00:06:28.511Z,23.40
2022-08-18T00:08:57.893Z,23.40
2022-08-18T00:11:25.940Z,23.40
2022-08-18T00:13:54.151Z,23.40
2022-08-18T00:16:22.202Z,23.40
2022-08-18T00:18:50.297Z,23.40
2022-08-18T00:21:18.714Z,23.40
2022-08-18T00:23:48.158Z,23.40
2022-08-18T00:26:16.275Z,23.40
2022-08-18T00:28:44.387Z,23.30
2022-08-18T00:31:12.441Z,23.30
2022-08-18T00:33:40.518Z,23.20
2022-08-18T00:36:08.628Z,23.20
2022-08-18T00:38:36.675Z,23.20
2022-08-18T00:41:06.486Z,23.20
2022-08-18T00:43:39.932Z,23.20
2022-08-18T00:46:09.272Z,23.20
2022-08-18T00:48:37.516Z,23.20
2022-08-18T00:51:10.050Z,23.20
2022-08-18T00:53:42.240Z,23.10
2022-08-18T00:56:12.550Z,23.20
2022-08-18T00:58:53.276Z,23.20
2022-08-18T01:01:23.438Z,23.20
2022-08-18T01:03:53.834Z,23.20
2022-08-18T01:06:26.336Z,23.10
2022-08-18T01:08:54.510Z,23.10
2022-08-18T01:11:23.892Z,23.10
2022-08-18T01:13:51.943Z,23.10
2022-08-18T01:16:37.625Z,23.10
2022-08-18T01:19:23.284Z,23.10
2022-08-18T01:21:53.686Z,23.10
2022-08-18T01:24:45.618Z,23.10
2022-08-18T01:27:15.100Z,23.10
2022-08-18T01:29:43.686Z,23.10
2022-08-18T01:32:12.680Z,23.00
2022-08-18T01:34:40.732Z,22.90
2022-08-18T01:37:10.196Z,22.90
2022-08-18T01:41:17.422Z,22.80
2022-08-18T01:42:27.714Z,22.80
2022-08-18T01:44:56.556Z,22.70
2022-08-18T01:47:24.835Z,22.60
2022-08-18T01:49:53.461Z,22.50
2022-08-18T01:52:22.161Z,22.50
2022-08-18T01:54:51.766Z,22.50
2022-08-18T01:57:23.116Z,22.50
2022-08-18T01:59:51.173Z,22.40
2022-08-18T02:02:24.556Z,22.40
2022-08-18T02:04:53.115Z,22.40
2022-08-18T02:07:21.381Z,22.30
2022-08-18T02:09:57.352Z,22.20
2022-08-18T02:12:27.251Z,22.20
2022-08-18T02:14:55.309Z,22.20
2022-08-18T02:17:23.924Z,22.20
2022-08-18T02:19:51.971Z,22.20
2022-08-18T02:22:20.983Z,22.10
2022-08-18T02:24:50.238Z,22.10
2022-08-18T02:27:19.606Z,22.10
2022-08-18T02:29:47.658Z,22.10
2022-08-18T02:32:15.696Z,22.00
2022-08-18T02:34:43.764Z,21.90
2022-08-18T02:37:15.167Z,21.90
2022-08-18T02:39:43.775Z,21.80
2022-08-18T02:42:14.695Z,21.80
2022-08-18T02:44:44.162Z,21.90
2022-08-18T02:47:12.221Z,21.80
2022-08-18T02:49:40.267Z,21.80
2022-08-18T02:52:08.288Z,21.80
2022-08-18T02:54:36.670Z,21.70
2022-08-18T02:57:08.166Z,21.70
2022-08-18T02:59:37.353Z,21.70
2022-08-18T03:02:09.198Z,21.70
2022-08-18T03:04:38.168Z,21.60
2022-08-18T03:07:07.083Z,21.60
2022-08-18T03:09:35.483Z,21.70
2022-08-18T03:12:03.758Z,21.70
2022-08-18T03:14:31.827Z,21.70
2022-08-18T03:16:59.978Z,21.60
2022-08-18T03:19:29.774Z,21.60
2022-08-18T03:21:59.464Z,21.60
2022-08-18T03:24:31.637Z,21.50
2022-08-18T03:27:00.971Z,21.50
2022-08-18T03:29:32.510Z,21.50
2022-08-18T03:32:01.542Z,21.50
2022-08-18T03:34:31.682Z,21.50
2022-08-18T03:36:59.860Z,21.40
2022-08-18T03:39:28.733Z,21.50
2022-08-18T03:42:00.943Z,21.40
2022-08-18T03:44:30.895Z,21.40
2022-08-18T03:46:59.159Z,21.30
2022-08-18T03:49:28.040Z,21.30
2022-08-18T03:52:00.172Z,21.30
2022-08-18T03:54:28.325Z,21.30
2022-08-18T03:56:56.359Z,21.30
2022-08-18T03:59:25.688Z,21.30
2022-08-18T04:01:54.996Z,21.20
2022-08-18T04:04:24.585Z,21.20
2022-08-18T04:06:55.016Z,21.20
2022-08-18T04:09:24.744Z,21.20
2022-08-18T04:11:52.879Z,21.10
2022-08-18T04:14:21.562Z,21.10
2022-08-18T04:16:50.072Z,21.10
2022-08-18T04:19:26.171Z,21.10
2022-08-18T04:21:55.720Z,21.20
2022-08-18T04:24:26.092Z,21.20
2022-08-18T04:26:54.683Z,21.20
2022-08-18T04:29:22.916Z,21.10
2022-08-18T04:31:51.596Z,21.20
2022-08-18T04:34:20.565Z,21.30
2022-08-18T04:36:48.702Z,21.30
2022-08-18T04:39:16.776Z,21.30
2022-08-18T04:41:46.338Z,21.40
2022-08-18T04:44:14.919Z,21.40
2022-08-18T04:46:44.480Z,21.50
2022-08-18T04:49:12.772Z,21.60
2022-08-18T04:52:36.484Z,21.60
2022-08-18T04:54:29.617Z,21.70
2022-08-18T04:56:59.003Z,21.80
2022-08-18T04:59:28.162Z,21.80
2022-08-18T05:01:56.207Z,21.90
2022-08-18T05:04:28.771Z,22.00
2022-08-18T05:06:56.840Z,22.10
2022-08-18T05:09:24.925Z,22.10
2022-08-18T05:11:57.987Z,22.20
2022-08-18T05:14:26.068Z,22.30
2022-08-18T05:16:54.494Z,22.30
2022-08-18T05:19:26.564Z,22.40
2022-08-18T05:22:00.083Z,22.50
2022-08-18T05:24:34.100Z,22.60
2022-08-18T05:27:07.577Z,22.60
2022-08-18T05:29:41.412Z,22.60
2022-08-18T05:32:38.311Z,22.70
2022-08-18T05:35:05.234Z,22.80
2022-08-18T05:37:36.457Z,22.90
2022-08-18T05:40:11.061Z,23.00
2022-08-18T05:42:41.324Z,23.10
2022-08-18T05:45:11.383Z,23.00
2022-08-18T05:47:39.487Z,23.10
2022-08-18T05:50:09.147Z,23.20
2022-08-18T05:52:38.775Z,23.20
2022-08-18T05:55:26.649Z,23.40
2022-08-18T05:58:00.664Z,23.50
2022-08-18T06:00:29.084Z,23.50
2022-08-18T06:02:59.905Z,23.60
2022-08-18T06:05:30.067Z,23.80
2022-08-18T06:07:59.735Z,23.90
2022-08-18T06:10:27.858Z,24.10
2022-08-18T06:12:58.704Z,24.40
2022-08-18T06:15:28.872Z,24.50
2022-08-18T06:18:10.017Z,24.70
2022-08-18T06:20:45.105Z,24.90
2022-08-18T06:23:20.919Z,24.80
2022-08-18T06:25:55.449Z,24.90
2022-08-18T06:28:24.881Z,25.20
2022-08-18T06:30:57.122Z,25.40
2022-08-18T06:33:38.660Z,25.50
2022-08-18T06:36:12.783Z,25.60
2022-08-18T06:38:48.378Z,25.50
2022-08-18T06:41:40.732Z,25.60
2022-08-18T06:44:08.798Z,25.50
2022-08-18T06:46:45.899Z,25.70
2022-08-18T06:49:15.784Z,25.80
2022-08-18T06:51:44.016Z,26.00
2022-08-18T06:54:27.785Z,26.10
2022-08-18T06:56:56.654Z,26.10
2022-08-18T06:59:27.595Z,26.10
2022-08-18T07:01:57.631Z,26.10
2022-08-18T07:04:42.921Z,26.10
2022-08-18T07:07:20.556Z,26.20
2022-08-18T07:09:49.359Z,26.30
2022-08-18T07:12:22.629Z,26.30
2022-08-18T07:14:53.613Z,26.50
2022-08-18T07:17:43.629Z,26.50
2022-08-18T07:20:20.355Z,26.60
2022-08-18T07:22:56.047Z,26.70
2022-08-18T07:25:26.584Z,26.90
2022-08-18T07:27:56.796Z,27.00
2022-08-18T07:30:32.164Z,27.00
2022-08-18T07:33:03.994Z,27.10
2022-08-18T07:35:35.853Z,27.30
2022-08-18T07:38:38.644Z,27.40
2022-08-18T07:40:56.304Z,27.50
2022-08-18T07:43:28.155Z,27.70
2022-08-18T07:46:01.308Z,28.00
2022-08-18T07:48:38.630Z,28.20
2022-08-18T07:51:11.124Z,28.40
2022-08-18T07:53:55.478Z,28.40
2022-08-18T07:56:29.808Z,28.30
2022-08-18T07:58:59.786Z,28.50
2022-08-18T08:01:34.051Z,28.70
2022-08-18T08:04:07.276Z,28.60
2022-08-18T08:06:40.280Z,28.60
2022-08-18T08:09:13.810Z,28.50
2022-08-18T08:11:46.206Z,28.40
2022-08-18T08:14:26.751Z,28.50
2022-08-18T08:17:01.739Z,28.80
2022-08-18T08:20:02.872Z,29.00
2022-08-18T08:22:32.877Z,29.00
2022-08-18T08:25:17.455Z,29.10
2022-08-18T08:28:03.099Z,29.00
2022-08-18T08:30:32.561Z,28.90
2022-08-18T08:33:07.808Z,29.00
2022-08-18T08:35:51.679Z,29.00
2022-08-18T08:38:39.566Z,29.00
2022-08-18T08:41:10.956Z,29.00
2022-08-18T08:43:41.735Z,29.20
2022-08-18T08:46:12.199Z,29.30
2022-08-18T08:48:44.109Z,29.50
2022-08-18T08:51:34.316Z,29.60
2022-08-18T08:54:07.028Z,29.70
2022-08-18T08:56:41.545Z,29.80
2022-08-18T08:59:12.334Z,29.70
2022-08-18T09:01:44.802Z,29.90
2022-08-18T09:04:22.655Z,30.00
2022-08-18T09:07:02.595Z,29.90
2022-08-18T09:09:52.735Z,29.90
2022-08-18T09:12:46.520Z,30.10
2022-08-18T09:15:49.601Z,29.90
2022-08-18T09:18:45.087Z,30.30
2022-08-18T09:21:29.570Z,30.20
2022-08-18T09:24:06.230Z,30.20
2022-08-18T09:26:48.658Z,30.20
2022-08-18T09:29:23.651Z,30.30
2022-08-18T09:32:44.783Z,30.40
2022-08-18T09:35:33.030Z,30.50
2022-08-18T09:38:26.968Z,30.70
2022-08-18T09:41:14.779Z,30.90
2022-08-18T09:43:55.988Z,31.10
2022-08-18T09:46:59.784Z,31.10
2022-08-18T09:49:53.160Z,31.30
2022-08-18T09:52:50.006Z,31.50
2022-08-18T09:55:40.358Z,31.70
2022-08-18T10:01:34.401Z,31.70
2022-08-18T10:04:30.701Z,31.60
2022-08-18T10:07:22.262Z,31.70
2022-08-18T10:13:11.836Z,32.30
2022-08-18T10:15:43.559Z,32.50
2022-08-18T10:18:24.458Z,32.80
2022-08-18T10:20:59.490Z,32.90
2022-08-18T10:24:07.991Z,33.00
2022-08-18T10:27:13.577Z,33.00
2022-08-18T10:29:54.808Z,33.20
2022-08-18T10:32:54.008Z,33.40
2022-08-18T10:36:07.780Z,33.50
2022-08-18T10:38:49.379Z,33.60
2022-08-18T10:41:23.542Z,33.80
2022-08-18T10:43:57.334Z,33.70
2022-08-18T10:49:26.087Z,34.30
2022-08-18T10:52:19.985Z,34.90
2022-08-18T10:58:05.412Z,34.80
2022-08-18T11:00:42.305Z,35.10
2022-08-18T11:03:50.002Z,34.90
2022-08-18T11:06:04.917Z,34.60
2022-08-18T11:08:34.339Z,34.20
2022-08-18T11:11:34.400Z,34.20
2022-08-18T11:14:01.125Z,34.00
2022-08-18T11:16:37.908Z,34.40
2022-08-18T11:19:12.493Z,34.30
2022-08-18T11:24:32.521Z,34.60
2022-08-18T11:27:02.072Z,34.20
2022-08-18T11:29:32.949Z,34.10
2022-08-18T11:32:04.548Z,34.30
2022-08-18T11:34:37.973Z,34.40
2022-08-18T11:37:11.557Z,34.80
2022-08-18T11:39:50.415Z,35.00
2022-08-18T11:42:21.809Z,35.10
2022-08-18T11:44:54.980Z,35.10
2022-08-18T11:47:27.570Z,35.10
2022-08-18T11:49:59.702Z,34.70
2022-08-18T11:52:35.002Z,34.60
2022-08-18T11:55:16.817Z,34.70
2022-08-18T11:57:59.305Z,34.50
2022-08-18T12:01:02.892Z,34.40
2022-08-18T12:03:37.913Z,34.20
2022-08-18T12:06:26.759Z,34.20
2022-08-18T12:08:59.324Z,34.40
2022-08-18T12:11:29.408Z,34.60
2022-08-18T12:14:29.562Z,34.90
2022-08-18T12:16:50.787Z,34.70
2022-08-18T12:25:05.429Z,34.70
2022-08-18T12:27:40.467Z,34.80
2022-08-18T12:30:16.768Z,34.70
2022-08-18T12:32:50.505Z,34.80
2022-08-18T12:35:29.155Z,34.80
2022-08-18T12:38:05.032Z,34.70
2022-08-18T12:40:40.740Z,34.70
2022-08-18T12:43:09.276Z,34.80
2022-08-18T12:45:38.149Z,34.70
2022-08-18T12:48:07.116Z,34.60
2022-08-18T12:50:41.091Z,34.60
2022-08-18T12:58:56.497Z,34.20
2022-08-18T13:01:25.054Z,34.20
2022-08-18T13:04:11.530Z,34.00
2022-08-18T13:06:48.774Z,33.80
2022-08-18T13:09:34.739Z,33.80
2022-08-18T13:12:18.454Z,33.70
2022-08-18T13:14:47.544Z,33.80
2022-08-18T13:17:32.780Z,33.70
2022-08-18T13:20:03.136Z,33.60
2022-08-18T13:22:32.080Z,33.60
2022-08-18T13:25:03.793Z,33.90
2022-08-18T13:27:35.368Z,34.00
2022-08-18T13:30:29.946Z,34.20
2022-08-18T13:32:58.742Z,34.30
2022-08-18T13:35:35.085Z,34.10
2022-08-18T13:38:15.682Z,34.00
2022-08-18T13:40:49.334Z,34.00
2022-08-18T13:43:18.189Z,33.80
2022-08-18T13:45:53.237Z,34.00
2022-08-18T13:48:25.643Z,34.20
2022-08-18T13:50:56.068Z,34.20
2022-08-18T13:53:24.730Z,34.10
2022-08-18T13:55:56.104Z,34.10
2022-08-18T13:58:24.590Z,33.90
2022-08-18T14:01:15.816Z,33.80
2022-08-18T14:03:47.630Z,33.70
2022-08-18T14:06:21.999Z,33.40
2022-08-18T14:08:52.172Z,33.30
2022-08-18T14:11:21.790Z,33.20
2022-08-18T14:13:49.845Z,33.10
2022-08-18T14:16:19.453Z,33.00
2022-08-18T14:19:10.004Z,33.00
2022-08-18T14:21:57.897Z,33.10
2022-08-18T14:24:43.568Z,33.20
2022-08-18T14:27:18.596Z,33.40
2022-08-18T14:29:49.753Z,33.40
2022-08-18T14:32:22.030Z,33.50
2022-08-18T14:35:00.153Z,33.60
2022-08-18T14:37:29.383Z,33.80
2022-08-18T14:39:58.196Z,33.80
2022-08-18T14:42:32.774Z,33.90
2022-08-18T14:45:26.746Z,33.90
2022-08-18T14:48:06.684Z,33.90
2022-08-18T14:50:36.259Z,34.00
2022-08-18T14:53:05.395Z,34.20
2022-08-18T14:55:34.121Z,34.20
2022-08-18T14:58:03.714Z,34.10
2022-08-18T15:00:35.447Z,34.10
2022-08-18T15:03:21.499Z,33.80
2022-08-18T15:05:56.487Z,33.50
2022-08-18T15:08:24.582Z,33.50
2022-08-18T15:10:54.707Z,33.60
2022-08-18T15:13:26.294Z,33.90
2022-08-18T15:15:55.885Z,34.20
2022-08-18T15:18:31.384Z,34.50
2022-08-18T15:21:34.798Z,34.70
2022-08-18T15:24:21.631Z,34.70
2022-08-18T15:26:51.430Z,34.40
2022-08-18T15:29:22.530Z,34.10
2022-08-18T15:31:59.770Z,33.80
2022-08-18T15:34:30.552Z,33.70
2022-08-18T15:37:03.024Z,33.50
2022-08-18T15:39:38.174Z,33.40
2022-08-18T15:42:11.679Z,33.10
2022-08-18T15:44:44.709Z,32.90
2022-08-18T15:47:12.874Z,32.90
2022-08-18T15:49:48.935Z,32.70
2022-08-18T15:52:19.767Z,32.40
2022-08-18T15:54:50.322Z,32.30
2022-08-18T15:57:34.288Z,32.20
2022-08-18T16:00:12.182Z,32.10
2022-08-18T16:02:40.796Z,32.00
2022-08-18T16:05:14.170Z,31.80
2022-08-18T16:07:45.184Z,31.60
2022-08-18T16:10:13.473Z,31.50
2022-08-18T16:12:45.791Z,31.40
2022-08-18T16:15:19.644Z,31.20
2022-08-18T16:17:49.818Z,31.00
2022-08-18T16:20:18.709Z,31.10
2022-08-18T16:22:46.916Z,31.20
2022-08-18T16:25:16.603Z,31.10
2022-08-18T16:27:45.013Z,30.90
2022-08-18T16:30:16.345Z,30.80
2022-08-18T16:32:45.129Z,30.70
2022-08-18T16:35:13.195Z,30.70
2022-08-18T16:37:41.338Z,30.70
2022-08-18T16:40:10.327Z,30.60
2022-08-18T16:42:38.407Z,30.40
2022-08-18T16:45:08.936Z,30.40
2022-08-18T16:47:39.108Z,30.10
2022-08-18T16:50:09.166Z,30.20
2022-08-18T16:52:37.202Z,30.10
2022-08-18T16:55:05.807Z,30.10
2022-08-18T16:57:54.019Z,30.00
2022-08-18T17:00:41.519Z,29.70
2022-08-18T17:03:28.582Z,29.60
2022-08-18T17:06:00.888Z,29.50
2022-08-18T17:08:29.067Z,29.30
2022-08-18T17:10:57.334Z,29.20
2022-08-18T17:13:25.412Z,29.20
2022-08-18T17:15:53.441Z,29.20
2022-08-18T17:18:22.866Z,29.00
2022-08-18T17:20:51.508Z,29.00
2022-08-18T17:23:19.585Z,28.90
2022-08-18T17:25:48.102Z,28.80
2022-08-18T17:28:18.626Z,28.70
2022-08-18T17:30:50.990Z,28.50
2022-08-18T17:33:23.270Z,28.40
2022-08-18T17:35:51.383Z,28.40
2022-08-18T17:38:22.313Z,28.30
2022-08-18T17:40:51.572Z,28.20
2022-08-18T17:43:20.503Z,28.10
2022-08-18T17:45:49.976Z,28.10
2022-08-18T17:48:22.116Z,27.90
2022-08-18T17:51:11.110Z,27.80
2022-08-18T17:53:39.258Z,27.70
2022-08-18T17:56:08.936Z,27.60
2022-08-18T17:58:40.415Z,27.60
2022-08-18T18:01:08.844Z,27.50
2022-08-18T18:03:37.099Z,27.40
2022-08-18T18:06:11.254Z,27.30
2022-08-18T18:08:49.827Z,27.30
2022-08-18T18:11:17.871Z,27.20
2022-08-18T18:13:46.594Z,27.20
2022-08-18T18:16:24.277Z,27.10
2022-08-18T18:19:00.211Z,27.10
2022-08-18T18:22:00.431Z,27.00
2022-08-18T18:24:23.996Z,26.90
2022-08-18T18:26:52.650Z,26.80
2022-08-18T18:29:28.168Z,26.80
2022-08-18T18:32:00.507Z,26.70
2022-08-18T18:34:33.989Z,26.60
2022-08-18T18:37:03.546Z,26.60
2022-08-18T18:39:34.158Z,26.50
2022-08-18T18:42:14.431Z,26.40
2022-08-18T18:44:51.694Z,26.40
2022-08-18T18:47:31.464Z,26.30
2022-08-18T18:50:02.340Z,26.10
2022-08-18T18:52:36.579Z,26.10
2022-08-18T18:55:06.214Z,26.00
2022-08-18T18:57:39.983Z,25.90
2022-08-18T19:00:18.168Z,25.90
2022-08-18T19:02:55.263Z,25.90
2022-08-18T19:05:28.758Z,25.90
2022-08-18T19:08:03.388Z,25.60
2022-08-18T19:10:36.230Z,25.60
2022-08-18T19:13:08.107Z,25.40
2022-08-18T19:15:38.347Z,25.30
2022-08-18T19:18:21.736Z,25.30
2022-08-18T19:22:05.974Z,25.20
2022-08-18T19:23:44.925Z,25.20
2022-08-18T19:26:16.080Z,25.10
2022-08-18T19:29:12.386Z,25.10
2022-08-18T19:31:37.684Z,24.70
2022-08-18T19:34:08.643Z,24.70
2022-08-18T19:36:40.708Z,24.50
2022-08-18T19:39:15.035Z,24.30
2022-08-18T19:41:48.003Z,24.20
2022-08-18T19:44:29.253Z,24.00
2022-08-18T19:47:00.062Z,23.90
2022-08-18T19:49:32.081Z,24.00
2022-08-18T19:52:07.607Z,24.00
2022-08-18T19:55:04.621Z,23.90
2022-08-18T19:57:49.185Z,23.90
2022-08-18T20:00:21.759Z,23.90
2022-08-18T20:03:04.306Z,23.80
2022-08-18T20:05:38.463Z,23.90
2022-08-18T20:08:26.979Z,23.90
2022-08-18T20:11:07.286Z,23.90
2022-08-18T20:13:41.285Z,23.80
2022-08-18T20:16:14.987Z,23.70
2022-08-18T20:18:43.874Z,23.60
2022-08-18T20:21:45.572Z,23.60
2022-08-18T20:24:39.631Z,23.60
2022-08-18T20:27:21.620Z,23.50
2022-08-18T20:29:49.869Z,23.50
2022-08-18T20:32:22.590Z,23.50
2022-08-18T20:34:51.762Z,23.40
2022-08-18T20:37:25.598Z,23.40
2022-08-18T20:39:56.589Z,23.30
2022-08-18T20:42:56.339Z,23.20
2022-08-18T20:45:36.639Z,23.10
2022-08-18T20:48:17.693Z,23.10
2022-08-18T20:51:04.661Z,23.10
2022-08-18T20:53:49.937Z,23.10
2022-08-18T20:56:32.348Z,23.10
2022-08-18T20:59:18.467Z,23.10
2022-08-18T21:01:57.685Z,23.10
2022-08-18T21:04:42.961Z,23.00
2022-08-18T21:07:17.769Z,23.00
2022-08-18T21:09:51.600Z,23.00
2022-08-18T21:12:23.688Z,23.00
2022-08-18T21:14:56.876Z,23.10
2022-08-18T21:17:26.272Z,23.00
2022-08-18T21:20:00.146Z,23.10
2022-08-18T21:22:28.600Z,23.00
2022-08-18T21:24:56.721Z,23.10
2022-08-18T21:27:27.119Z,23.00
2022-08-18T21:29:57.699Z,23.10
2022-08-18T21:32:31.533Z,23.00
2022-08-18T21:35:05.719Z,23.00
2022-08-18T21:37:38.860Z,22.90
2022-08-18T21:40:07.807Z,22.90
2022-08-18T21:42:42.061Z,22.90
2022-08-18T21:45:17.311Z,22.80
2022-08-18T21:47:49.878Z,22.80
2022-08-18T21:50:19.407Z,22.80
2022-08-18T21:52:52.899Z,22.80
2022-08-18T21:55:26.026Z,22.80
2022-08-18T21:58:02.839Z,22.60
2022-08-18T22:00:33.957Z,22.60
2022-08-18T22:03:26.651Z,22.50
2022-08-18T22:06:00.699Z,22.60
2022-08-18T22:08:30.016Z,22.60
2022-08-18T22:11:41.843Z,22.50
2022-08-18T22:14:25.162Z,22.60
2022-08-18T22:17:18.018Z,22.60
2022-08-18T22:19:46.597Z,22.60
2022-08-18T22:22:28.584Z,22.60
2022-08-18T22:24:58.555Z,22.50
2022-08-18T22:27:27.207Z,22.60
2022-08-18T22:29:56.171Z,22.50
2022-08-18T22:32:25.715Z,22.50
2022-08-18T22:34:53.787Z,22.50
2022-08-18T22:37:23.350Z,22.40
2022-08-18T22:39:52.575Z,22.40
2022-08-18T22:42:21.911Z,22.40
2022-08-18T22:44:50.024Z,22.40
2022-08-18T22:47:18.304Z,22.30
2022-08-18T22:49:47.835Z,22.20
2022-08-18T22:52:18.999Z,22.20
2022-08-18T22:54:47.081Z,22.20
2022-08-18T22:57:18.991Z,22.10
2022-08-18T22:59:51.705Z,22.20
2022-08-18T23:02:22.108Z,22.20
2022-08-18T23:04:51.695Z,22.20
2022-08-18T23:07:22.971Z,22.30
2022-08-18T23:09:51.034Z,22.30
2022-08-18T23:12:19.089Z,22.20
2022-08-18T23:14:49.576Z,22.10
2022-08-18T23:17:17.890Z,22.20
2022-08-18T23:19:47.004Z,22.20
2022-08-18T23:22:16.804Z,22.20
2022-08-18T23:24:44.855Z,22.20
2022-08-18T23:27:12.924Z,22.20
2022-08-18T23:29:41.292Z,22.30
2022-08-18T23:32:09.378Z,22.20
2022-08-18T23:34:37.421Z,22.20
2022-08-18T23:37:05.806Z,22.20
2022-08-18T23:39:35.646Z,22.10
2022-08-18T23:42:04.025Z,22.10
2022-08-18T23:44:32.273Z,22.10
2022-08-18T23:47:00.654Z,22.20
2022-08-18T23:49:29.150Z,22.10
2022-08-18T23:51:57.773Z,22.00
2022-08-18T23:54:27.851Z,22.10
2022-08-18T23:56:57.400Z,22.10
2022-08-18T23:59:25.906Z,22.10
